Nanjemoy, Maryland
Current Conditions -  °F | °C
As of 5:56 PM on Thursday 23 Oct 2014 (Local Time) from KNYG Reporting Station
Clear Clear  
Wind Chill: 63°   Ceiling: Unl
Heat Index: 63°   Visibility: 10mi
Dew Point: 44°   Wind: 8mph
Humidity: 50%   Direction: 330°NNW
Pressure: 29.89"   Gusts: NA
Location:  38.45°N, 77.22°W
Report Text: KNYG 232156Z AUTO 33007KT 10SM CLR 17/07 A2989 RMK AO2 SLP122 T01720067 $
Loading
Personal Weather Stations






























Interactive Weather Map
Tropical Storm Tracking
New forecast layout! Learn more

10-Day Weather Forecast

Advertisements
Track Severe Weather on mobile